sensor_id;sensor_type;location;lat;lon;timestamp;P1;durP1;ratioP1;P2;durP2;ratioP2
32866;SDS011;19220;55.816;37.808;2023-06-04T00:01:03;6.20;;;2.33;;
32866;SDS011;19220;55.816;37.808;2023-06-04T00:03:30;4.07;;;2.72;;
32866;SDS011;19220;55.816;37.808;2023-06-04T00:05:55;4.18;;;2.40;;
32866;SDS011;19220;55.816;37.808;2023-06-04T00:08:21;4.95;;;2.30;;
32866;SDS011;19220;55.816;37.808;2023-06-04T00:10:47;6.55;;;2.35;;
32866;SDS011;19220;55.816;37.808;2023-06-04T00:13:12;5.32;;;2.50;;
32866;SDS011;19220;55.816;37.808;2023-06-04T00:15:38;3.28;;;2.38;;
32866;SDS011;19220;55.816;37.808;2023-06-04T00:18:03;3.65;;;2.10;;
32866;SDS011;19220;55.816;37.808;2023-06-04T00:20:29;7.20;;;2.40;;
32866;SDS011;19220;55.816;37.808;2023-06-04T00:22:55;3.03;;;1.83;;
32866;SDS011;19220;55.816;37.808;2023-06-04T00:25:20;5.20;;;1.98;;
32866;SDS011;19220;55.816;37.808;2023-06-04T00:27:46;3.58;;;1.83;;
32866;SDS011;19220;55.816;37.808;2023-06-04T00:30:11;3.05;;;1.70;;
32866;SDS011;19220;55.816;37.808;2023-06-04T00:32:37;5.22;;;1.75;;
32866;SDS011;19220;55.816;37.808;2023-06-04T00:35:03;4.07;;;2.20;;
32866;SDS011;19220;55.816;37.808;2023-06-04T00:37:29;3.63;;;1.80;;
32866;SDS011;19220;55.816;37.808;2023-06-04T00:39:55;3.40;;;1.92;;
32866;SDS011;19220;55.816;37.808;2023-06-04T00:42:20;2.38;;;1.55;;
32866;SDS011;19220;55.816;37.808;2023-06-04T00:44:46;4.03;;;1.95;;
32866;SDS011;19220;55.816;37.808;2023-06-04T00:47:15;6.13;;;2.08;;
32866;SDS011;19220;55.816;37.808;2023-06-04T00:49:40;4.85;;;1.92;;
32866;SDS011;19220;55.816;37.808;2023-06-04T00:52:09;3.92;;;2.33;;
32866;SDS011;19220;55.816;37.808;2023-06-04T00:54:35;5.63;;;2.33;;
32866;SDS011;19220;55.816;37.808;2023-06-04T00:57:01;10.02;;;3.00;;
32866;SDS011;19220;55.816;37.808;2023-06-04T00:59:27;4.95;;;2.50;;
32866;SDS011;19220;55.816;37.808;2023-06-04T01:01:59;5.32;;;2.40;;
32866;SDS011;19220;55.816;37.808;2023-06-04T01:04:29;4.63;;;2.53;;
32866;SDS011;19220;55.816;37.808;2023-06-04T01:06:56;6.18;;;2.70;;
32866;SDS011;19220;55.816;37.808;2023-06-04T01:09:25;7.68;;;2.50;;
32866;SDS011;19220;55.816;37.808;2023-06-04T01:11:51;7.25;;;2.90;;
32866;SDS011;19220;55.816;37.808;2023-06-04T01:14:17;5.70;;;2.63;;
32866;SDS011;19220;55.816;37.808;2023-06-04T01:22:02;6.53;;;2.47;;
32866;SDS011;19220;55.816;37.808;2023-06-04T01:24:28;6.88;;;2.55;;
32866;SDS011;19220;55.816;37.808;2023-06-04T01:26:54;8.57;;;3.47;;
32866;SDS011;19220;55.816;37.808;2023-06-04T01:29:21;7.03;;;2.97;;
32866;SDS011;19220;55.816;37.808;2023-06-04T01:31:49;8.77;;;2.88;;
32866;SDS011;19220;55.816;37.808;2023-06-04T01:34:15;8.85;;;2.92;;
32866;SDS011;19220;55.816;37.808;2023-06-04T01:36:40;7.72;;;3.13;;
32866;SDS011;19220;55.816;37.808;2023-06-04T01:39:06;7.55;;;2.80;;
32866;SDS011;19220;55.816;37.808;2023-06-04T01:41:31;7.75;;;2.90;;
32866;SDS011;19220;55.816;37.808;2023-06-04T01:43:57;8.13;;;2.75;;
32866;SDS011;19220;55.816;37.808;2023-06-04T01:46:23;5.78;;;2.55;;
32866;SDS011;19220;55.816;37.808;2023-06-04T01:48:48;6.93;;;2.70;;
32866;SDS011;19220;55.816;37.808;2023-06-04T01:51:14;6.20;;;2.50;;
32866;SDS011;19220;55.816;37.808;2023-06-04T01:53:39;4.30;;;2.55;;
32866;SDS011;19220;55.816;37.808;2023-06-04T01:56:05;9.27;;;2.92;;
32866;SDS011;19220;55.816;37.808;2023-06-04T01:58:32;7.40;;;2.50;;
32866;SDS011;19220;55.816;37.808;2023-06-04T02:00:59;5.72;;;2.72;;
32866;SDS011;19220;55.816;37.808;2023-06-04T02:03:26;5.43;;;2.40;;
32866;SDS011;19220;55.816;37.808;2023-06-04T02:05:51;6.97;;;2.38;;
32866;SDS011;19220;55.816;37.808;2023-06-04T02:08:17;5.57;;;2.42;;
32866;SDS011;19220;55.816;37.808;2023-06-04T02:10:47;4.00;;;2.20;;
32866;SDS011;19220;55.816;37.808;2023-06-04T02:13:14;5.22;;;2.10;;
32866;SDS011;19220;55.816;37.808;2023-06-04T02:15:40;4.13;;;2.08;;
32866;SDS011;19220;55.816;37.808;2023-06-04T02:18:13;4.13;;;2.15;;
32866;SDS011;19220;55.816;37.808;2023-06-04T02:21:02;6.68;;;2.30;;
32866;SDS011;19220;55.816;37.808;2023-06-04T02:23:27;7.22;;;2.08;;
32866;SDS011;19220;55.816;37.808;2023-06-04T02:25:53;5.22;;;2.22;;
32866;SDS011;19220;55.816;37.808;2023-06-04T02:28:19;6.95;;;2.38;;
32866;SDS011;19220;55.816;37.808;2023-06-04T02:30:45;4.90;;;2.20;;
32866;SDS011;19220;55.816;37.808;2023-06-04T02:33:13;4.18;;;2.15;;
32866;SDS011;19220;55.816;37.808;2023-06-04T02:35:39;5.03;;;2.63;;
32866;SDS011;19220;55.816;37.808;2023-06-04T02:38:06;4.45;;;2.53;;
32866;SDS011;19220;55.816;37.808;2023-06-04T02:40:31;4.18;;;2.67;;
32866;SDS011;19220;55.816;37.808;2023-06-04T02:42:57;6.05;;;2.42;;
32866;SDS011;19220;55.816;37.808;2023-06-04T02:45:22;4.90;;;2.30;;
32866;SDS011;19220;55.816;37.808;2023-06-04T02:47:48;5.55;;;2.20;;
32866;SDS011;19220;55.816;37.808;2023-06-04T02:50:14;7.78;;;2.25;;
32866;SDS011;19220;55.816;37.808;2023-06-04T02:52:41;9.02;;;2.05;;
32866;SDS011;19220;55.816;37.808;2023-06-04T02:55:07;4.18;;;2.13;;
32866;SDS011;19220;55.816;37.808;2023-06-04T02:57:32;3.13;;;1.95;;
32866;SDS011;19220;55.816;37.808;2023-06-04T02:59:59;3.70;;;1.73;;
32866;SDS011;19220;55.816;37.808;2023-06-04T03:02:25;3.30;;;1.77;;
32866;SDS011;19220;55.816;37.808;2023-06-04T03:04:51;2.22;;;1.50;;
32866;SDS011;19220;55.816;37.808;2023-06-04T03:07:17;2.17;;;1.50;;
32866;SDS011;19220;55.816;37.808;2023-06-04T03:09:46;3.75;;;1.77;;
32866;SDS011;19220;55.816;37.808;2023-06-04T03:12:11;3.42;;;1.88;;
32866;SDS011;19220;55.816;37.808;2023-06-04T03:14:37;3.10;;;1.50;;
32866;SDS011;19220;55.816;37.808;2023-06-04T03:17:03;4.00;;;1.95;;
32866;SDS011;19220;55.816;37.808;2023-06-04T03:19:34;3.08;;;1.58;;
32866;SDS011;19220;55.816;37.808;2023-06-04T03:22:00;3.15;;;1.80;;
32866;SDS011;19220;55.816;37.808;2023-06-04T03:24:30;3.45;;;1.63;;
32866;SDS011;19220;55.816;37.808;2023-06-04T03:26:55;3.35;;;1.58;;
32866;SDS011;19220;55.816;37.808;2023-06-04T03:29:21;1.65;;;1.55;;
32866;SDS011;19220;55.816;37.808;2023-06-04T03:31:48;2.75;;;1.60;;
32866;SDS011;19220;55.816;37.808;2023-06-04T03:34:13;3.55;;;1.30;;
32866;SDS011;19220;55.816;37.808;2023-06-04T03:36:39;1.90;;;1.40;;
32866;SDS011;19220;55.816;37.808;2023-06-04T03:39:05;1.40;;;1.20;;
32866;SDS011;19220;55.816;37.808;2023-06-04T03:41:31;2.42;;;1.20;;
32866;SDS011;19220;55.816;37.808;2023-06-04T03:43:57;1.92;;;1.30;;
32866;SDS011;19220;55.816;37.808;2023-06-04T03:46:22;3.35;;;1.15;;
32866;SDS011;19220;55.816;37.808;2023-06-04T03:48:51;3.50;;;2.05;;
32866;SDS011;19220;55.816;37.808;2023-06-04T03:51:17;3.22;;;1.50;;
32866;SDS011;19220;55.816;37.808;2023-06-04T03:53:44;4.00;;;1.42;;
32866;SDS011;19220;55.816;37.808;2023-06-04T03:56:10;1.48;;;1.38;;
32866;SDS011;19220;55.816;37.808;2023-06-04T03:58:36;7.05;;;1.30;;
32866;SDS011;19220;55.816;37.808;2023-06-04T04:01:02;1.55;;;1.40;;
32866;SDS011;19220;55.816;37.808;2023-06-04T04:03:30;2.30;;;1.30;;
32866;SDS011;19220;55.816;37.808;2023-06-04T04:05:57;1.55;;;1.20;;
32866;SDS011;19220;55.816;37.808;2023-06-04T04:08:23;3.17;;;1.40;;
32866;SDS011;19220;55.816;37.808;2023-06-04T04:10:49;2.78;;;1.30;;
32866;SDS011;19220;55.816;37.808;2023-06-04T04:13:14;2.15;;;1.23;;
32866;SDS011;19220;55.816;37.808;2023-06-04T04:15:40;1.27;;;1.17;;
32866;SDS011;19220;55.816;37.808;2023-06-04T04:18:06;1.45;;;1.15;;
32866;SDS011;19220;55.816;37.808;2023-06-04T04:20:34;1.10;;;1.00;;
32866;SDS011;19220;55.816;37.808;2023-06-04T04:23:04;1.70;;;1.20;;
32866;SDS011;19220;55.816;37.808;2023-06-04T04:25:33;1.63;;;1.10;;
32866;SDS011;19220;55.816;37.808;2023-06-04T04:28:00;1.92;;;1.35;;
32866;SDS011;19220;55.816;37.808;2023-06-04T04:30:28;3.38;;;1.05;;
32866;SDS011;19220;55.816;37.808;2023-06-04T04:32:54;3.03;;;1.30;;
32866;SDS011;19220;55.816;37.808;2023-06-04T04:35:27;2.03;;;1.17;;
32866;SDS011;19220;55.816;37.808;2023-06-04T04:37:56;3.03;;;1.20;;
32866;SDS011;19220;55.816;37.808;2023-06-04T04:40:23;1.80;;;1.30;;
32866;SDS011;19220;55.816;37.808;2023-06-04T04:42:50;1.60;;;1.10;;
32866;SDS011;19220;55.816;37.808;2023-06-04T04:45:17;1.45;;;0.98;;
32866;SDS011;19220;55.816;37.808;2023-06-04T04:47:43;1.10;;;1.00;;
32866;SDS011;19220;55.816;37.808;2023-06-04T04:50:09;2.17;;;1.10;;
32866;SDS011;19220;55.816;37.808;2023-06-04T04:52:35;1.10;;;0.90;;
32866;SDS011;19220;55.816;37.808;2023-06-04T04:55:01;3.13;;;1.00;;
32866;SDS011;19220;55.816;37.808;2023-06-04T04:57:29;1.80;;;1.05;;
32866;SDS011;19220;55.816;37.808;2023-06-04T04:59:56;2.30;;;1.30;;
32866;SDS011;19220;55.816;37.808;2023-06-04T05:02:21;0.98;;;0.80;;
32866;SDS011;19220;55.816;37.808;2023-06-04T05:04:48;1.25;;;1.10;;
32866;SDS011;19220;55.816;37.808;2023-06-04T05:07:14;0.88;;;0.85;;
32866;SDS011;19220;55.816;37.808;2023-06-04T05:09:40;3.15;;;1.00;;
32866;SDS011;19220;55.816;37.808;2023-06-04T05:12:06;2.83;;;1.20;;
32866;SDS011;19220;55.816;37.808;2023-06-04T05:14:32;1.50;;;0.90;;
32866;SDS011;19220;55.816;37.808;2023-06-04T05:17:01;2.08;;;0.93;;
32866;SDS011;19220;55.816;37.808;2023-06-04T05:19:28;2.10;;;0.90;;
32866;SDS011;19220;55.816;37.808;2023-06-04T05:21:54;4.82;;;2.80;;
32866;SDS011;19220;55.816;37.808;2023-06-04T05:24:20;1.80;;;1.10;;
32866;SDS011;19220;55.816;37.808;2023-06-04T05:26:46;2.05;;;1.30;;
32866;SDS011;19220;55.816;37.808;2023-06-04T05:29:17;2.65;;;1.10;;
32866;SDS011;19220;55.816;37.808;2023-06-04T05:31:44;5.68;;;0.90;;
32866;SDS011;19220;55.816;37.808;2023-06-04T05:34:12;1.10;;;0.77;;
32866;SDS011;19220;55.816;37.808;2023-06-04T05:36:42;1.27;;;1.00;;
32866;SDS011;19220;55.816;37.808;2023-06-04T05:39:08;1.05;;;0.70;;
32866;SDS011;19220;55.816;37.808;2023-06-04T05:42:00;1.67;;;1.17;;
32866;SDS011;19220;55.816;37.808;2023-06-04T05:44:26;5.18;;;0.88;;
32866;SDS011;19220;55.816;37.808;2023-06-04T05:46:52;3.58;;;1.10;;
32866;SDS011;19220;55.816;37.808;2023-06-04T05:49:18;0.88;;;0.75;;
32866;SDS011;19220;55.816;37.808;2023-06-04T05:51:45;2.47;;;0.90;;
32866;SDS011;19220;55.816;37.808;2023-06-04T05:54:11;2.97;;;1.20;;
32866;SDS011;19220;55.816;37.808;2023-06-04T05:56:40;1.85;;;0.90;;
32866;SDS011;19220;55.816;37.808;2023-06-04T05:59:05;1.30;;;0.93;;
32866;SDS011;19220;55.816;37.808;2023-06-04T06:01:31;2.83;;;0.75;;
32866;SDS011;19220;55.816;37.808;2023-06-04T06:03:57;3.13;;;0.93;;
32866;SDS011;19220;55.816;37.808;2023-06-04T06:06:25;2.03;;;1.00;;
32866;SDS011;19220;55.816;37.808;2023-06-04T06:08:51;1.42;;;0.80;;
32866;SDS011;19220;55.816;37.808;2023-06-04T06:11:18;1.30;;;1.20;;
32866;SDS011;19220;55.816;37.808;2023-06-04T06:13:44;3.55;;;1.10;;
32866;SDS011;19220;55.816;37.808;2023-06-04T06:16:10;4.03;;;0.82;;
32866;SDS011;19220;55.816;37.808;2023-06-04T06:18:37;3.88;;;1.00;;
32866;SDS011;19220;55.816;37.808;2023-06-04T06:21:02;1.95;;;1.02;;
32866;SDS011;19220;55.816;37.808;2023-06-04T06:23:28;1.60;;;0.93;;
32866;SDS011;19220;55.816;37.808;2023-06-04T06:25:54;1.70;;;1.00;;
32866;SDS011;19220;55.816;37.808;2023-06-04T06:28:26;1.05;;;0.93;;
32866;SDS011;19220;55.816;37.808;2023-06-04T06:30:52;1.80;;;0.82;;
32866;SDS011;19220;55.816;37.808;2023-06-04T06:33:18;3.38;;;1.38;;
32866;SDS011;19220;55.816;37.808;2023-06-04T06:35:47;1.25;;;0.80;;
32866;SDS011;19220;55.816;37.808;2023-06-04T06:38:12;1.02;;;0.70;;
32866;SDS011;19220;55.816;37.808;2023-06-04T06:40:39;2.10;;;0.80;;
32866;SDS011;19220;55.816;37.808;2023-06-04T06:43:05;1.00;;;0.80;;
32866;SDS011;19220;55.816;37.808;2023-06-04T06:45:31;1.83;;;0.90;;
32866;SDS011;19220;55.816;37.808;2023-06-04T06:47:56;1.00;;;0.80;;
32866;SDS011;19220;55.816;37.808;2023-06-04T06:50:22;2.63;;;0.98;;
32866;SDS011;19220;55.816;37.808;2023-06-04T06:52:47;3.10;;;1.70;;
32866;SDS011;19220;55.816;37.808;2023-06-04T06:55:13;1.85;;;0.90;;
32866;SDS011;19220;55.816;37.808;2023-06-04T06:57:38;1.85;;;1.13;;
32866;SDS011;19220;55.816;37.808;2023-06-04T07:00:04;1.58;;;0.90;;
32866;SDS011;19220;55.816;37.808;2023-06-04T07:02:32;4.07;;;0.80;;
32866;SDS011;19220;55.816;37.808;2023-06-04T07:04:58;1.88;;;1.10;;
32866;SDS011;19220;55.816;37.808;2023-06-04T07:07:23;7.38;;;1.23;;
32866;SDS011;19220;55.816;37.808;2023-06-04T07:09:49;2.97;;;1.08;;
32866;SDS011;19220;55.816;37.808;2023-06-04T07:12:14;1.00;;;0.80;;
32866;SDS011;19220;55.816;37.808;2023-06-04T07:14:40;0.80;;;0.80;;
32866;SDS011;19220;55.816;37.808;2023-06-04T07:17:05;1.60;;;1.02;;
32866;SDS011;19220;55.816;37.808;2023-06-04T07:19:31;2.80;;;1.25;;
32866;SDS011;19220;55.816;37.808;2023-06-04T07:21:57;1.98;;;0.93;;
32866;SDS011;19220;55.816;37.808;2023-06-04T07:24:22;2.42;;;0.93;;
32866;SDS011;19220;55.816;37.808;2023-06-04T07:26:48;1.80;;;0.85;;
32866;SDS011;19220;55.816;37.808;2023-06-04T07:29:14;1.17;;;1.00;;
32866;SDS011;19220;55.816;37.808;2023-06-04T07:31:41;0.98;;;0.80;;
32866;SDS011;19220;55.816;37.808;2023-06-04T07:34:06;1.67;;;1.58;;
32866;SDS011;19220;55.816;37.808;2023-06-04T07:36:32;1.92;;;0.93;;
32866;SDS011;19220;55.816;37.808;2023-06-04T07:38:58;1.25;;;1.15;;
32866;SDS011;19220;55.816;37.808;2023-06-04T07:41:23;0.98;;;0.95;;
32866;SDS011;19220;55.816;37.808;2023-06-04T07:43:50;2.35;;;0.80;;
32866;SDS011;19220;55.816;37.808;2023-06-04T07:46:16;0.63;;;0.60;;
32866;SDS011;19220;55.816;37.808;2023-06-04T07:48:44;0.80;;;0.80;;
32866;SDS011;19220;55.816;37.808;2023-06-04T07:51:09;4.90;;;0.70;;
32866;SDS011;19220;55.816;37.808;2023-06-04T07:53:36;1.70;;;0.63;;
32866;SDS011;19220;55.816;37.808;2023-06-04T07:56:03;2.53;;;0.70;;
32866;SDS011;19220;55.816;37.808;2023-06-04T07:58:28;0.90;;;0.80;;
32866;SDS011;19220;55.816;37.808;2023-06-04T08:00:54;2.38;;;0.95;;
32866;SDS011;19220;55.816;37.808;2023-06-04T08:03:19;0.95;;;0.60;;
32866;SDS011;19220;55.816;37.808;2023-06-04T08:05:45;0.80;;;0.70;;
32866;SDS011;19220;55.816;37.808;2023-06-04T08:08:11;2.10;;;1.00;;
32866;SDS011;19220;55.816;37.808;2023-06-04T08:10:36;1.85;;;0.77;;
32866;SDS011;19220;55.816;37.808;2023-06-04T08:13:02;1.35;;;0.60;;
32866;SDS011;19220;55.816;37.808;2023-06-04T08:15:27;0.95;;;0.80;;
32866;SDS011;19220;55.816;37.808;2023-06-04T08:18:13;1.42;;;0.88;;
32866;SDS011;19220;55.816;37.808;2023-06-04T08:20:56;1.23;;;0.70;;
32866;SDS011;19220;55.816;37.808;2023-06-04T08:23:38;1.60;;;1.10;;
32866;SDS011;19220;55.816;37.808;2023-06-04T08:26:24;2.25;;;0.90;;
32866;SDS011;19220;55.816;37.808;2023-06-04T08:29:01;3.72;;;0.82;;
32866;SDS011;19220;55.816;37.808;2023-06-04T08:31:30;0.85;;;0.80;;
32866;SDS011;19220;55.816;37.808;2023-06-04T08:34:06;1.23;;;0.80;;
32866;SDS011;19220;55.816;37.808;2023-06-04T08:36:43;3.72;;;0.95;;
32866;SDS011;19220;55.816;37.808;2023-06-04T08:39:08;3.25;;;0.98;;
32866;SDS011;19220;55.816;37.808;2023-06-04T08:44:09;1.63;;;0.95;;
32866;SDS011;19220;55.816;37.808;2023-06-04T08:46:36;4.50;;;1.40;;
32866;SDS011;19220;55.816;37.808;2023-06-04T08:49:04;4.43;;;1.05;;
32866;SDS011;19220;55.816;37.808;2023-06-04T08:51:32;1.90;;;1.10;;
32866;SDS011;19220;55.816;37.808;2023-06-04T08:53:59;0.98;;;0.73;;
32866;SDS011;19220;55.816;37.808;2023-06-04T08:56:25;0.73;;;0.60;;
32866;SDS011;19220;55.816;37.808;2023-06-04T08:58:51;1.10;;;0.80;;
32866;SDS011;19220;55.816;37.808;2023-06-04T09:01:18;4.82;;;1.00;;
32866;SDS011;19220;55.816;37.808;2023-06-04T09:03:44;1.25;;;1.00;;
32866;SDS011;19220;55.816;37.808;2023-06-04T09:06:10;1.98;;;0.90;;
32866;SDS011;19220;55.816;37.808;2023-06-04T09:08:37;1.48;;;0.80;;
32866;SDS011;19220;55.816;37.808;2023-06-04T09:11:04;3.03;;;1.20;;
32866;SDS011;19220;55.816;37.808;2023-06-04T09:13:31;2.25;;;1.38;;
32866;SDS011;19220;55.816;37.808;2023-06-04T09:16:04;2.35;;;1.83;;
32866;SDS011;19220;55.816;37.808;2023-06-04T09:18:31;1.65;;;0.85;;
32866;SDS011;19220;55.816;37.808;2023-06-04T09:21:06;1.77;;;1.02;;
32866;SDS011;19220;55.816;37.808;2023-06-04T09:23:50;2.45;;;0.90;;
32866;SDS011;19220;55.816;37.808;2023-06-04T09:26:16;1.88;;;0.70;;
32866;SDS011;19220;55.816;37.808;2023-06-04T09:28:45;2.67;;;0.90;;
32866;SDS011;19220;55.816;37.808;2023-06-04T09:31:17;1.65;;;0.95;;
32866;SDS011;19220;55.816;37.808;2023-06-04T09:33:43;1.42;;;0.75;;
32866;SDS011;19220;55.816;37.808;2023-06-04T09:36:09;2.15;;;0.80;;
32866;SDS011;19220;55.816;37.808;2023-06-04T09:38:35;1.67;;;0.90;;
32866;SDS011;19220;55.816;37.808;2023-06-04T09:41:01;1.38;;;0.85;;
32866;SDS011;19220;55.816;37.808;2023-06-04T09:43:30;1.05;;;0.80;;
32866;SDS011;19220;55.816;37.808;2023-06-04T09:45:55;0.70;;;0.70;;
32866;SDS011;19220;55.816;37.808;2023-06-04T09:48:22;1.67;;;0.80;;
32866;SDS011;19220;55.816;37.808;2023-06-04T09:50:48;1.17;;;0.70;;
32866;SDS011;19220;55.816;37.808;2023-06-04T09:53:14;0.82;;;0.77;;
32866;SDS011;19220;55.816;37.808;2023-06-04T09:55:40;1.95;;;0.77;;
32866;SDS011;19220;55.816;37.808;2023-06-04T09:58:06;1.27;;;1.02;;
32866;SDS011;19220;55.816;37.808;2023-06-04T10:00:32;0.80;;;0.75;;
32866;SDS011;19220;55.816;37.808;2023-06-04T10:02:59;2.33;;;1.30;;
32866;SDS011;19220;55.816;37.808;2023-06-04T10:05:26;3.90;;;0.95;;
32866;SDS011;19220;55.816;37.808;2023-06-04T10:07:53;1.40;;;0.80;;
32866;SDS011;19220;55.816;37.808;2023-06-04T10:10:22;0.90;;;0.85;;
32866;SDS011;19220;55.816;37.808;2023-06-04T10:12:50;3.75;;;0.85;;
32866;SDS011;19220;55.816;37.808;2023-06-04T10:15:15;1.13;;;0.90;;
32866;SDS011;19220;55.816;37.808;2023-06-04T10:17:42;1.08;;;0.98;;
32866;SDS011;19220;55.816;37.808;2023-06-04T10:20:08;1.55;;;0.90;;
32866;SDS011;19220;55.816;37.808;2023-06-04T10:22:34;1.20;;;1.10;;
32866;SDS011;19220;55.816;37.808;2023-06-04T10:25:00;1.13;;;0.75;;
32866;SDS011;19220;55.816;37.808;2023-06-04T10:27:30;2.47;;;1.35;;
32866;SDS011;19220;55.816;37.808;2023-06-04T10:29:55;9.88;;;0.85;;
32866;SDS011;19220;55.816;37.808;2023-06-04T10:32:21;1.02;;;0.93;;
32866;SDS011;19220;55.816;37.808;2023-06-04T10:34:47;2.25;;;0.70;;
32866;SDS011;19220;55.816;37.808;2023-06-04T10:37:22;4.50;;;0.70;;
32866;SDS011;19220;55.816;37.808;2023-06-04T10:39:55;2.53;;;0.70;;
32866;SDS011;19220;55.816;37.808;2023-06-04T10:42:22;1.63;;;0.93;;
32866;SDS011;19220;55.816;37.808;2023-06-04T10:44:51;0.93;;;0.80;;
32866;SDS011;19220;55.816;37.808;2023-06-04T10:49:52;1.02;;;0.80;;
32866;SDS011;19220;55.816;37.808;2023-06-04T10:52:18;1.38;;;0.80;;
32866;SDS011;19220;55.816;37.808;2023-06-04T10:54:44;1.10;;;0.73;;
32866;SDS011;19220;55.816;37.808;2023-06-04T10:57:14;0.90;;;0.90;;
32866;SDS011;19220;55.816;37.808;2023-06-04T10:59:40;0.80;;;0.80;;
32866;SDS011;19220;55.816;37.808;2023-06-04T11:02:06;1.80;;;1.00;;
32866;SDS011;19220;55.816;37.808;2023-06-04T11:04:32;1.17;;;0.93;;
32866;SDS011;19220;55.816;37.808;2023-06-04T11:07:01;1.10;;;1.00;;
32866;SDS011;19220;55.816;37.808;2023-06-04T11:09:28;1.13;;;0.90;;
32866;SDS011;19220;55.816;37.808;2023-06-04T11:12:00;1.40;;;0.88;;
32866;SDS011;19220;55.816;37.808;2023-06-04T11:14:26;0.80;;;0.73;;
32866;SDS011;19220;55.816;37.808;2023-06-04T11:16:52;1.08;;;0.80;;
32866;SDS011;19220;55.816;37.808;2023-06-04T11:19:17;5.38;;;1.00;;
32866;SDS011;19220;55.816;37.808;2023-06-04T11:21:43;1.13;;;0.80;;
32866;SDS011;19220;55.816;37.808;2023-06-04T11:24:08;3.65;;;0.80;;
32866;SDS011;19220;55.816;37.808;2023-06-04T11:26:35;0.93;;;0.82;;
32866;SDS011;19220;55.816;37.808;2023-06-04T11:29:01;1.67;;;0.70;;
32866;SDS011;19220;55.816;37.808;2023-06-04T11:31:27;3.95;;;0.98;;
32866;SDS011;19220;55.816;37.808;2023-06-04T11:33:52;3.70;;;0.98;;
32866;SDS011;19220;55.816;37.808;2023-06-04T11:36:22;1.00;;;0.90;;
32866;SDS011;19220;55.816;37.808;2023-06-04T11:38:57;1.83;;;0.90;;
32866;SDS011;19220;55.816;37.808;2023-06-04T11:41:23;1.55;;;0.65;;
32866;SDS011;19220;55.816;37.808;2023-06-04T11:43:50;1.92;;;0.70;;
32866;SDS011;19220;55.816;37.808;2023-06-04T11:46:15;1.95;;;0.88;;
32866;SDS011;19220;55.816;37.808;2023-06-04T11:48:41;0.93;;;0.70;;
32866;SDS011;19220;55.816;37.808;2023-06-04T11:51:07;1.00;;;0.70;;
32866;SDS011;19220;55.816;37.808;2023-06-04T11:53:33;6.20;;;0.70;;
32866;SDS011;19220;55.816;37.808;2023-06-04T11:56:00;1.55;;;0.90;;
32866;SDS011;19220;55.816;37.808;2023-06-04T11:58:26;2.38;;;0.80;;
32866;SDS011;19220;55.816;37.808;2023-06-04T12:00:52;1.13;;;0.60;;
32866;SDS011;19220;55.816;37.808;2023-06-04T12:03:17;2.75;;;1.08;;
32866;SDS011;19220;55.816;37.808;2023-06-04T12:05:43;1.92;;;1.00;;
32866;SDS011;19220;55.816;37.808;2023-06-04T12:08:09;1.48;;;0.90;;
32866;SDS011;19220;55.816;37.808;2023-06-04T12:10:41;0.82;;;0.80;;
32866;SDS011;19220;55.816;37.808;2023-06-04T12:13:07;2.70;;;1.05;;
32866;SDS011;19220;55.816;37.808;2023-06-04T12:15:33;0.98;;;0.82;;
32866;SDS011;19220;55.816;37.808;2023-06-04T12:17:58;1.58;;;0.90;;
32866;SDS011;19220;55.816;37.808;2023-06-04T12:20:33;4.25;;;1.00;;
32866;SDS011;19220;55.816;37.808;2023-06-04T12:22:59;1.73;;;0.80;;
32866;SDS011;19220;55.816;37.808;2023-06-04T12:25:25;2.58;;;1.02;;
32866;SDS011;19220;55.816;37.808;2023-06-04T12:27:51;1.55;;;1.20;;
32866;SDS011;19220;55.816;37.808;2023-06-04T12:30:17;2.55;;;1.10;;
32866;SDS011;19220;55.816;37.808;2023-06-04T12:32:42;1.13;;;0.95;;
32866;SDS011;19220;55.816;37.808;2023-06-04T12:35:12;1.50;;;0.93;;
32866;SDS011;19220;55.816;37.808;2023-06-04T12:37:37;0.70;;;0.70;;
32866;SDS011;19220;55.816;37.808;2023-06-04T12:40:03;7.70;;;1.27;;
32866;SDS011;19220;55.816;37.808;2023-06-04T12:42:49;2.30;;;1.02;;
32866;SDS011;19220;55.816;37.808;2023-06-04T12:45:16;1.63;;;1.10;;
32866;SDS011;19220;55.816;37.808;2023-06-04T12:47:42;1.98;;;0.82;;
32866;SDS011;19220;55.816;37.808;2023-06-04T12:50:08;3.00;;;0.90;;
32866;SDS011;19220;55.816;37.808;2023-06-04T12:52:33;1.05;;;0.80;;
32866;SDS011;19220;55.816;37.808;2023-06-04T12:54:59;2.30;;;0.85;;
32866;SDS011;19220;55.816;37.808;2023-06-04T12:57:24;1.85;;;0.73;;
32866;SDS011;19220;55.816;37.808;2023-06-04T12:59:50;2.25;;;1.10;;
32866;SDS011;19220;55.816;37.808;2023-06-04T13:02:16;4.15;;;1.35;;
32866;SDS011;19220;55.816;37.808;2023-06-04T13:04:41;2.95;;;1.05;;
32866;SDS011;19220;55.816;37.808;2023-06-04T13:07:09;3.88;;;1.05;;
32866;SDS011;19220;55.816;37.808;2023-06-04T13:09:35;4.93;;;1.20;;
32866;SDS011;19220;55.816;37.808;2023-06-04T13:12:00;5.75;;;1.17;;
32866;SDS011;19220;55.816;37.808;2023-06-04T13:14:26;1.52;;;0.85;;
32866;SDS011;19220;55.816;37.808;2023-06-04T13:16:51;7.15;;;1.30;;
32866;SDS011;19220;55.816;37.808;2023-06-04T13:19:17;5.03;;;1.00;;
32866;SDS011;19220;55.816;37.808;2023-06-04T13:21:45;5.15;;;1.40;;
32866;SDS011;19220;55.816;37.808;2023-06-04T13:24:11;2.50;;;1.20;;
32866;SDS011;19220;55.816;37.808;2023-06-04T13:26:36;2.50;;;1.17;;
32866;SDS011;19220;55.816;37.808;2023-06-04T13:29:04;1.48;;;0.98;;
32866;SDS011;19220;55.816;37.808;2023-06-04T13:31:29;1.25;;;0.95;;
32866;SDS011;19220;55.816;37.808;2023-06-04T13:33:55;3.50;;;1.10;;
32866;SDS011;19220;55.816;37.808;2023-06-04T13:36:20;3.25;;;1.10;;
32866;SDS011;19220;55.816;37.808;2023-06-04T13:38:46;5.00;;;3.92;;
32866;SDS011;19220;55.816;37.808;2023-06-04T13:41:12;4.63;;;1.20;;
32866;SDS011;19220;55.816;37.808;2023-06-04T13:43:37;1.70;;;1.10;;
32866;SDS011;19220;55.816;37.808;2023-06-04T13:46:04;2.95;;;1.40;;
32866;SDS011;19220;55.816;37.808;2023-06-04T13:48:29;3.08;;;1.13;;
32866;SDS011;19220;55.816;37.808;2023-06-04T13:50:55;3.45;;;1.27;;
32866;SDS011;19220;55.816;37.808;2023-06-04T13:53:20;1.80;;;1.13;;
32866;SDS011;19220;55.816;37.808;2023-06-04T13:55:46;2.10;;;1.20;;
32866;SDS011;19220;55.816;37.808;2023-06-04T13:58:12;6.45;;;5.80;;
32866;SDS011;19220;55.816;37.808;2023-06-04T14:00:37;3.05;;;1.98;;
32866;SDS011;19220;55.816;37.808;2023-06-04T14:03:03;1.10;;;1.00;;
32866;SDS011;19220;55.816;37.808;2023-06-04T14:05:29;1.40;;;1.30;;
32866;SDS011;19220;55.816;37.808;2023-06-04T14:07:55;1.50;;;1.10;;
32866;SDS011;19220;55.816;37.808;2023-06-04T14:10:21;2.20;;;0.98;;
32866;SDS011;19220;55.816;37.808;2023-06-04T14:12:47;4.57;;;1.35;;
32866;SDS011;19220;55.816;37.808;2023-06-04T14:15:12;2.28;;;1.20;;
32866;SDS011;19220;55.816;37.808;2023-06-04T14:17:38;2.53;;;0.98;;
32866;SDS011;19220;55.816;37.808;2023-06-04T14:20:04;4.05;;;1.20;;
32866;SDS011;19220;55.816;37.808;2023-06-04T14:22:34;1.30;;;0.82;;
32866;SDS011;19220;55.816;37.808;2023-06-04T14:25:01;5.38;;;1.30;;
32866;SDS011;19220;55.816;37.808;2023-06-04T14:27:26;1.58;;;0.98;;
32866;SDS011;19220;55.816;37.808;2023-06-04T14:29:52;2.45;;;1.25;;
32866;SDS011;19220;55.816;37.808;2023-06-04T14:32:18;1.73;;;1.35;;
32866;SDS011;19220;55.816;37.808;2023-06-04T14:34:43;3.17;;;1.15;;
32866;SDS011;19220;55.816;37.808;2023-06-04T14:37:09;1.80;;;1.58;;
32866;SDS011;19220;55.816;37.808;2023-06-04T14:39:34;2.63;;;1.60;;
32866;SDS011;19220;55.816;37.808;2023-06-04T14:42:01;2.65;;;1.30;;